KSLC/SLC METAR and TAF weather

Enter ICAO airport designator
Station Type Date Time Source
KSLC METAR 2022/09/26 08:54 UTC NOAA

KSLC 260854Z 13006KT 10SM CLR 16/05 A3023 RMK AO2 SLP192 T01610050 57002


Station Type Date Time Source
KSLC Decoded METAR 2022/09/26 08:54 UTC NOAA

SALT LAKE CITY INTERNATIONAL AIRPORT , UT, United States (KSLC) 40-47N 111-58W 1286M
Sep 26, 2022 - 04:54 AM EDT / 2022.09.26 0854 UTC
Wind: from the SE (130 degrees) at 7 MPH (6 KT):0
Visibility: 10 mile(s):0
Sky conditions: clear
Temperature: 61.0 F (16.1 C)
Dew Point: 41.0 F (5.0 C)
Relative Humidity: 47%
Pressure (altimeter): 30.23 in. Hg (1023 hPa)
Pressure tendency: 0.01 inches (0.2 hPa) lower than three hours ago
ob: KSLC 260854Z 13006KT 10SM CLR 16/05 A3023 RMK AO2 SLP192 T01610050 57002
cycle: 9

Station Type Date Time Source
KSLC TAF 2022/09/26 09:04 UTC NOAA

TAF
AMD KSLC 260901Z 2609/2712 15006KT P6SM SKC
FM261800 32008KT P6SM SKC
FM270300 16006KT P6SM SKC

Example: see airport list